sensor_id;sensor_type;location;lat;lon;timestamp;pressure;altitude;pressure_sealevel;temperature
78225;BMP280;67498;53.650;10.090;2023-08-21T00:00:44;102177.16;;;17.17
78225;BMP280;67498;53.650;10.090;2023-08-21T00:03:10;102174.31;;;17.08
78225;BMP280;67498;53.650;10.090;2023-08-21T00:05:35;102170.44;;;17.12
78225;BMP280;67498;53.650;10.090;2023-08-21T00:08:00;102174.31;;;17.08
78225;BMP280;67498;53.650;10.090;2023-08-21T00:10:25;102167.47;;;17.10
78225;BMP280;67498;53.650;10.090;2023-08-21T00:12:50;102173.16;;;17.09
78225;BMP280;67498;53.650;10.090;2023-08-21T00:15:16;102171.31;;;17.06
78225;BMP280;67498;53.650;10.090;2023-08-21T00:17:41;102170.25;;;17.03
78225;BMP280;67498;53.650;10.090;2023-08-21T00:20:07;102171.44;;;16.99
78225;BMP280;67498;53.650;10.090;2023-08-21T00:22:35;102169.13;;;17.01
78225;BMP280;67498;53.650;10.090;2023-08-21T00:25:00;102164.00;;;16.94
78225;BMP280;67498;53.650;10.090;2023-08-21T00:27:25;102166.72;;;16.90
78225;BMP280;67498;53.650;10.090;2023-08-21T00:29:51;102167.13;;;16.88
78225;BMP280;67498;53.650;10.090;2023-08-21T00:32:16;102181.06;;;16.89
78225;BMP280;67498;53.650;10.090;2023-08-21T00:34:41;102176.94;;;16.88
78225;BMP280;67498;53.650;10.090;2023-08-21T00:37:07;102165.75;;;16.80
78225;BMP280;67498;53.650;10.090;2023-08-21T00:39:32;102176.66;;;16.82
78225;BMP280;67498;53.650;10.090;2023-08-21T00:41:57;102181.16;;;16.82
78225;BMP280;67498;53.650;10.090;2023-08-21T00:44:22;102173.38;;;16.75
78225;BMP280;67498;53.650;10.090;2023-08-21T00:46:48;102166.66;;;16.70
78225;BMP280;67498;53.650;10.090;2023-08-21T00:49:13;102168.97;;;16.68
78225;BMP280;67498;53.650;10.090;2023-08-21T00:51:38;102181.34;;;16.71
78225;BMP280;67498;53.650;10.090;2023-08-21T00:54:04;102178.72;;;16.71
78225;BMP280;67498;53.650;10.090;2023-08-21T00:56:29;102171.72;;;16.61
78225;BMP280;67498;53.650;10.090;2023-08-21T00:58:56;102163.47;;;16.59
78225;BMP280;67498;53.650;10.090;2023-08-21T01:01:24;102170.56;;;16.62
78225;BMP280;67498;53.650;10.090;2023-08-21T01:03:51;102168.41;;;16.57
78225;BMP280;67498;53.650;10.090;2023-08-21T01:06:16;102174.75;;;16.59
78225;BMP280;67498;53.650;10.090;2023-08-21T01:09:01;102172.13;;;16.59
78225;BMP280;67498;53.650;10.090;2023-08-21T01:11:41;102169.88;;;16.58
78225;BMP280;67498;53.650;10.090;2023-08-21T01:14:10;102173.69;;;16.57
78225;BMP280;67498;53.650;10.090;2023-08-21T01:16:39;102171.81;;;16.54
78225;BMP280;67498;53.650;10.090;2023-08-21T01:19:12;102168.91;;;16.48
78225;BMP280;67498;53.650;10.090;2023-08-21T01:21:39;102180.19;;;16.49
78225;BMP280;67498;53.650;10.090;2023-08-21T01:24:05;102173.81;;;16.46
78225;BMP280;67498;53.650;10.090;2023-08-21T01:26:30;102172.72;;;16.44
78225;BMP280;67498;53.650;10.090;2023-08-21T01:28:55;102173.53;;;16.40
78225;BMP280;67498;53.650;10.090;2023-08-21T01:31:26;102179.19;;;16.43
78225;BMP280;67498;53.650;10.090;2023-08-21T01:33:54;102178.44;;;16.42
78225;BMP280;67498;53.650;10.090;2023-08-21T01:36:22;102183.72;;;16.38
78225;BMP280;67498;53.650;10.090;2023-08-21T01:38:48;102169.94;;;16.31
78225;BMP280;67498;53.650;10.090;2023-08-21T01:41:13;102178.63;;;16.28
78225;BMP280;67498;53.650;10.090;2023-08-21T01:43:39;102186.91;;;16.30
78225;BMP280;67498;53.650;10.090;2023-08-21T01:46:04;102180.94;;;16.22
78225;BMP280;67498;53.650;10.090;2023-08-21T01:48:30;102175.34;;;16.20
78225;BMP280;67498;53.650;10.090;2023-08-21T01:50:55;102177.97;;;16.20
78225;BMP280;67498;53.650;10.090;2023-08-21T01:53:20;102183.19;;;16.24
78225;BMP280;67498;53.650;10.090;2023-08-21T01:55:45;102176.88;;;16.17
78225;BMP280;67498;53.650;10.090;2023-08-21T01:58:11;102167.88;;;16.15
78225;BMP280;67498;53.650;10.090;2023-08-21T02:00:36;102171.38;;;16.08
78225;BMP280;67498;53.650;10.090;2023-08-21T02:03:01;102181.84;;;16.15
78225;BMP280;67498;53.650;10.090;2023-08-21T02:05:26;102181.06;;;16.15
78225;BMP280;67498;53.650;10.090;2023-08-21T02:07:52;102176.94;;;16.14
78225;BMP280;67498;53.650;10.090;2023-08-21T02:10:17;102171.38;;;16.08
78225;BMP280;67498;53.650;10.090;2023-08-21T02:12:42;102175.06;;;16.14
78225;BMP280;67498;53.650;10.090;2023-08-21T02:15:08;102175.88;;;16.08
78225;BMP280;67498;53.650;10.090;2023-08-21T02:17:35;102171.38;;;16.08
78225;BMP280;67498;53.650;10.090;2023-08-21T02:20:00;102184.50;;;16.12
78225;BMP280;67498;53.650;10.090;2023-08-21T02:22:25;102193.53;;;16.11
78225;BMP280;67498;53.650;10.090;2023-08-21T02:24:51;102189.81;;;16.08
78225;BMP280;67498;53.650;10.090;2023-08-21T02:27:16;102192.09;;;16.06
78225;BMP280;67498;53.650;10.090;2023-08-21T02:29:41;102179.03;;;15.99
78225;BMP280;67498;53.650;10.090;2023-08-21T02:32:06;102186.94;;;15.99
78225;BMP280;67498;53.650;10.090;2023-08-21T02:34:32;102185.84;;;15.97
78225;BMP280;67498;53.650;10.090;2023-08-21T02:36:57;102177.94;;;15.97
78225;BMP280;67498;53.650;10.090;2023-08-21T02:39:23;102185.06;;;16.00
78225;BMP280;67498;53.650;10.090;2023-08-21T02:41:48;102186.94;;;15.99
78225;BMP280;67498;53.650;10.090;2023-08-21T02:44:13;102192.22;;;15.99
78225;BMP280;67498;53.650;10.090;2023-08-21T02:46:39;102183.19;;;15.97
78225;BMP280;67498;53.650;10.090;2023-08-21T02:49:04;102191.47;;;15.95
78225;BMP280;67498;53.650;10.090;2023-08-21T02:51:29;102187.78;;;15.93
78225;BMP280;67498;53.650;10.090;2023-08-21T02:53:55;102190.13;;;15.83
78225;BMP280;67498;53.650;10.090;2023-08-21T02:56:20;102191.59;;;15.84
78225;BMP280;67498;53.650;10.090;2023-08-21T02:58:45;102190.53;;;15.82
78225;BMP280;67498;53.650;10.090;2023-08-21T03:01:10;102193.22;;;15.75
78225;BMP280;67498;53.650;10.090;2023-08-21T03:03:36;102199.22;;;15.79
78225;BMP280;67498;53.650;10.090;2023-08-21T03:06:02;102196.25;;;15.77
78225;BMP280;67498;53.650;10.090;2023-08-21T03:08:27;102195.88;;;15.75
78225;BMP280;67498;53.650;10.090;2023-08-21T03:10:52;102201.53;;;15.73
78225;BMP280;67498;53.650;10.090;2023-08-21T03:13:18;102199.31;;;15.72
78225;BMP280;67498;53.650;10.090;2023-08-21T03:15:43;102190.69;;;15.68
78225;BMP280;67498;53.650;10.090;2023-08-21T03:18:08;102179.84;;;15.62
78225;BMP280;67498;53.650;10.090;2023-08-21T03:20:33;102192.56;;;15.71
78225;BMP280;67498;53.650;10.090;2023-08-21T03:22:59;102198.19;;;15.69
78225;BMP280;67498;53.650;10.090;2023-08-21T03:25:24;102194.09;;;15.68
78225;BMP280;67498;53.650;10.090;2023-08-21T03:27:50;102200.47;;;15.67
78225;BMP280;67498;53.650;10.090;2023-08-21T03:30:15;102187.41;;;15.60
78225;BMP280;67498;53.650;10.090;2023-08-21T03:32:40;102190.75;;;15.64
78225;BMP280;67498;53.650;10.090;2023-08-21T03:35:06;102185.16;;;15.58
78225;BMP280;67498;53.650;10.090;2023-08-21T03:37:31;102190.69;;;15.68
78225;BMP280;67498;53.650;10.090;2023-08-21T03:39:57;102189.94;;;15.67
78225;BMP280;67498;53.650;10.090;2023-08-21T03:42:22;102188.50;;;15.62
78225;BMP280;67498;53.650;10.090;2023-08-21T03:44:47;102195.56;;;15.69
78225;BMP280;67498;53.650;10.090;2023-08-21T03:47:15;102197.84;;;15.67
78225;BMP280;67498;53.650;10.090;2023-08-21T03:49:40;102197.81;;;15.71
78225;BMP280;67498;53.650;10.090;2023-08-21T03:52:06;102194.09;;;15.68
78225;BMP280;67498;53.650;10.090;2023-08-21T03:54:31;102184.72;;;15.63
78225;BMP280;67498;53.650;10.090;2023-08-21T03:56:56;102203.09;;;15.67
78225;BMP280;67498;53.650;10.090;2023-08-21T03:59:21;102198.25;;;15.65
78225;BMP280;67498;53.650;10.090;2023-08-21T04:01:48;102191.88;;;15.63
78225;BMP280;67498;53.650;10.090;2023-08-21T04:04:14;102195.63;;;15.62
78225;BMP280;67498;53.650;10.090;2023-08-21T04:06:39;102200.16;;;15.61
78225;BMP280;67498;53.650;10.090;2023-08-21T04:09:04;102196.81;;;15.61
78225;BMP280;67498;53.650;10.090;2023-08-21T04:11:31;102181.84;;;15.54
78225;BMP280;67498;53.650;10.090;2023-08-21T04:13:57;102198.69;;;15.60
78225;BMP280;67498;53.650;10.090;2023-08-21T04:16:24;102196.81;;;15.61
78225;BMP280;67498;53.650;10.090;2023-08-21T04:18:49;102187.09;;;15.54
78225;BMP280;67498;53.650;10.090;2023-08-21T04:21:14;102189.72;;;15.54
78225;BMP280;67498;53.650;10.090;2023-08-21T04:23:40;102199.81;;;15.59
78225;BMP280;67498;53.650;10.090;2023-08-21T04:26:05;102196.09;;;15.57
78225;BMP280;67498;53.650;10.090;2023-08-21T04:28:32;102194.91;;;15.61
78225;BMP280;67498;53.650;10.090;2023-08-21T04:30:58;102203.53;;;15.62
78225;BMP280;67498;53.650;10.090;2023-08-21T04:33:25;102205.06;;;15.63
78225;BMP280;67498;53.650;10.090;2023-08-21T04:35:50;102211.44;;;15.62
78225;BMP280;67498;53.650;10.090;2023-08-21T04:38:15;102206.91;;;15.62
78225;BMP280;67498;53.650;10.090;2023-08-21T04:40:41;102210.28;;;15.67
78225;BMP280;67498;53.650;10.090;2023-08-21T04:43:06;102199.00;;;15.66
78225;BMP280;67498;53.650;10.090;2023-08-21T04:45:31;102210.19;;;15.74
78225;BMP280;67498;53.650;10.090;2023-08-21T04:47:56;102202.69;;;15.72
78225;BMP280;67498;53.650;10.090;2023-08-21T04:50:21;102206.38;;;15.78
78225;BMP280;67498;53.650;10.090;2023-08-21T04:52:47;102203.72;;;15.78
78225;BMP280;67498;53.650;10.090;2023-08-21T04:55:14;102205.56;;;15.85
78225;BMP280;67498;53.650;10.090;2023-08-21T04:57:39;102198.38;;;15.85
78225;BMP280;67498;53.650;10.090;2023-08-21T05:00:05;102206.56;;;15.95
78225;BMP280;67498;53.650;10.090;2023-08-21T05:02:30;102211.78;;;15.98
78225;BMP280;67498;53.650;10.090;2023-08-21T05:04:56;102203.50;;;16.00
78225;BMP280;67498;53.650;10.090;2023-08-21T05:07:21;102212.84;;;16.01
78225;BMP280;67498;53.650;10.090;2023-08-21T05:09:46;102216.94;;;16.09
78225;BMP280;67498;53.650;10.090;2023-08-21T05:12:11;102210.09;;;16.11
78225;BMP280;67498;53.650;10.090;2023-08-21T05:14:37;102225.41;;;16.20
78225;BMP280;67498;53.650;10.090;2023-08-21T05:17:03;102217.84;;;16.26
78225;BMP280;67498;53.650;10.090;2023-08-21T05:19:28;102223.41;;;16.31
78225;BMP280;67498;53.650;10.090;2023-08-21T05:21:53;102216.53;;;16.37
78225;BMP280;67498;53.650;10.090;2023-08-21T05:24:19;102221.69;;;16.45
78225;BMP280;67498;53.650;10.090;2023-08-21T05:26:44;102221.25;;;16.50
78225;BMP280;67498;53.650;10.090;2023-08-21T05:29:09;102214.03;;;16.54
78225;BMP280;67498;53.650;10.090;2023-08-21T05:31:34;102210.88;;;16.62
78225;BMP280;67498;53.650;10.090;2023-08-21T05:34:00;102208.25;;;16.62
78225;BMP280;67498;53.650;10.090;2023-08-21T05:36:25;102208.16;;;16.70
78225;BMP280;67498;53.650;10.090;2023-08-21T05:38:50;102208.84;;;16.74
78225;BMP280;67498;53.650;10.090;2023-08-21T05:41:16;102211.00;;;16.79
78225;BMP280;67498;53.650;10.090;2023-08-21T05:43:41;102222.16;;;16.90
78225;BMP280;67498;53.650;10.090;2023-08-21T05:46:07;102222.00;;;16.97
78225;BMP280;67498;53.650;10.090;2023-08-21T05:48:33;102217.69;;;17.07
78225;BMP280;67498;53.650;10.090;2023-08-21T05:50:58;102226.66;;;17.33
78225;BMP280;67498;53.650;10.090;2023-08-21T05:53:23;102212.69;;;17.52
78225;BMP280;67498;53.650;10.090;2023-08-21T05:55:48;102225.97;;;17.68
78225;BMP280;67498;53.650;10.090;2023-08-21T05:58:14;102218.84;;;17.65
78225;BMP280;67498;53.650;10.090;2023-08-21T06:00:39;102217.03;;;17.62
78225;BMP280;67498;53.650;10.090;2023-08-21T06:03:04;102226.03;;;17.65
78225;BMP280;67498;53.650;10.090;2023-08-21T06:05:30;102228.53;;;17.72
78225;BMP280;67498;53.650;10.090;2023-08-21T06:07:56;102235.78;;;17.88
78225;BMP280;67498;53.650;10.090;2023-08-21T06:10:21;102232.50;;;18.00
78225;BMP280;67498;53.650;10.090;2023-08-21T06:12:46;102234.88;;;18.11
78225;BMP280;67498;53.650;10.090;2023-08-21T06:15:13;102240.44;;;18.16
78225;BMP280;67498;53.650;10.090;2023-08-21T06:17:38;102235.00;;;18.24
78225;BMP280;67498;53.650;10.090;2023-08-21T06:20:05;102234.75;;;18.51
78225;BMP280;67498;53.650;10.090;2023-08-21T06:22:31;102243.50;;;18.64
78225;BMP280;67498;53.650;10.090;2023-08-21T06:24:56;102241.38;;;18.59
78225;BMP280;67498;53.650;10.090;2023-08-21T06:27:22;102247.28;;;18.63
78225;BMP280;67498;53.650;10.090;2023-08-21T06:29:47;102252.84;;;18.68
78225;BMP280;67498;53.650;10.090;2023-08-21T06:32:12;102257.47;;;18.81
78225;BMP280;67498;53.650;10.090;2023-08-21T06:34:38;102257.00;;;18.99
78225;BMP280;67498;53.650;10.090;2023-08-21T06:37:03;102251.34;;;19.13
78225;BMP280;67498;53.650;10.090;2023-08-21T06:39:28;102246.34;;;19.44
78225;BMP280;67498;53.650;10.090;2023-08-21T06:41:53;102251.38;;;20.06
78225;BMP280;67498;53.650;10.090;2023-08-21T06:44:20;102256.38;;;20.51
78225;BMP280;67498;53.650;10.090;2023-08-21T06:46:45;102251.41;;;20.75
78225;BMP280;67498;53.650;10.090;2023-08-21T06:49:10;102249.44;;;20.88
78225;BMP280;67498;53.650;10.090;2023-08-21T06:51:36;102265.63;;;21.03
78225;BMP280;67498;53.650;10.090;2023-08-21T06:54:01;102262.97;;;21.25
78225;BMP280;67498;53.650;10.090;2023-08-21T06:56:26;102255.94;;;21.80
78225;BMP280;67498;53.650;10.090;2023-08-21T06:58:52;102264.16;;;22.23
78225;BMP280;67498;53.650;10.090;2023-08-21T07:01:17;102266.53;;;22.21
78225;BMP280;67498;53.650;10.090;2023-08-21T07:03:42;102259.13;;;22.16
78225;BMP280;67498;53.650;10.090;2023-08-21T07:06:08;102264.63;;;22.21
78225;BMP280;67498;53.650;10.090;2023-08-21T07:08:33;102256.44;;;22.06
78225;BMP280;67498;53.650;10.090;2023-08-21T07:11:02;102251.16;;;21.97
78225;BMP280;67498;53.650;10.090;2023-08-21T07:13:27;102259.81;;;21.89
78225;BMP280;67498;53.650;10.090;2023-08-21T07:15:53;102257.44;;;21.81
78225;BMP280;67498;53.650;10.090;2023-08-21T07:18:20;102261.56;;;21.82
78225;BMP280;67498;53.650;10.090;2023-08-21T07:20:45;102258.31;;;21.87
78225;BMP280;67498;53.650;10.090;2023-08-21T07:23:10;102254.09;;;21.90
78225;BMP280;67498;53.650;10.090;2023-08-21T07:25:35;102262.34;;;21.92
78225;BMP280;67498;53.650;10.090;2023-08-21T07:28:01;102262.22;;;21.96
78225;BMP280;67498;53.650;10.090;2023-08-21T07:30:27;102252.31;;;21.96
78225;BMP280;67498;53.650;10.090;2023-08-21T07:32:52;102257.22;;;22.07
78225;BMP280;67498;53.650;10.090;2023-08-21T07:35:18;102270.50;;;22.16
78225;BMP280;67498;53.650;10.090;2023-08-21T07:37:44;102266.41;;;22.24
78225;BMP280;67498;53.650;10.090;2023-08-21T07:40:09;102264.03;;;22.35
78225;BMP280;67498;53.650;10.090;2023-08-21T07:42:35;102267.59;;;22.51
78225;BMP280;67498;53.650;10.090;2023-08-21T07:45:00;102261.50;;;22.68
78225;BMP280;67498;53.650;10.090;2023-08-21T07:47:28;102273.75;;;22.93
78225;BMP280;67498;53.650;10.090;2023-08-21T07:49:54;102265.31;;;23.37
78225;BMP280;67498;53.650;10.090;2023-08-21T07:52:20;102262.38;;;23.68
78225;BMP280;67498;53.650;10.090;2023-08-21T07:54:46;102260.28;;;23.72
78225;BMP280;67498;53.650;10.090;2023-08-21T07:57:11;102271.22;;;23.74
78225;BMP280;67498;53.650;10.090;2023-08-21T07:59:37;102270.00;;;23.85
78225;BMP280;67498;53.650;10.090;2023-08-21T08:02:02;102266.66;;;24.14
78225;BMP280;67498;53.650;10.090;2023-08-21T08:04:29;102269.69;;;24.07
78225;BMP280;67498;53.650;10.090;2023-08-21T08:06:54;102262.53;;;23.89
78225;BMP280;67498;53.650;10.090;2023-08-21T08:09:19;102269.63;;;23.68
78225;BMP280;67498;53.650;10.090;2023-08-21T08:11:45;102263.50;;;23.53
78225;BMP280;67498;53.650;10.090;2023-08-21T08:14:10;102255.97;;;23.42
78225;BMP280;67498;53.650;10.090;2023-08-21T08:16:35;102254.97;;;23.39
78225;BMP280;67498;53.650;10.090;2023-08-21T08:19:00;102263.25;;;23.41
78225;BMP280;67498;53.650;10.090;2023-08-21T08:21:26;102272.28;;;23.44
78225;BMP280;67498;53.650;10.090;2023-08-21T08:23:51;102267.50;;;23.48
78225;BMP280;67498;53.650;10.090;2023-08-21T08:26:16;102262.63;;;23.46
78225;BMP280;67498;53.650;10.090;2023-08-21T08:28:42;102266.91;;;23.53
78225;BMP280;67498;53.650;10.090;2023-08-21T08:31:14;102264.47;;;23.64
78225;BMP280;67498;53.650;10.090;2023-08-21T08:33:39;102272.78;;;23.66
78225;BMP280;67498;53.650;10.090;2023-08-21T08:36:05;102275.28;;;23.70
78225;BMP280;67498;53.650;10.090;2023-08-21T08:38:30;102274.81;;;23.71
78225;BMP280;67498;53.650;10.090;2023-08-21T08:40:56;102272.47;;;23.64
78225;BMP280;67498;53.650;10.090;2023-08-21T08:43:25;102263.31;;;23.56
78225;BMP280;67498;53.650;10.090;2023-08-21T08:45:50;102272.19;;;23.62
78225;BMP280;67498;53.650;10.090;2023-08-21T08:48:19;102277.47;;;23.71
78225;BMP280;67498;53.650;10.090;2023-08-21T08:50:45;102279.34;;;23.80
78225;BMP280;67498;53.650;10.090;2023-08-21T08:53:12;102264.94;;;23.87
78225;BMP280;67498;53.650;10.090;2023-08-21T08:55:37;102262.03;;;23.99
78225;BMP280;67498;53.650;10.090;2023-08-21T08:58:03;102278.19;;;24.20
78225;BMP280;67498;53.650;10.090;2023-08-21T09:00:28;102276.75;;;24.34
78225;BMP280;67498;53.650;10.090;2023-08-21T09:02:54;102272.81;;;24.44
78225;BMP280;67498;53.650;10.090;2023-08-21T09:05:20;102273.91;;;24.52
78225;BMP280;67498;53.650;10.090;2023-08-21T09:07:45;102269.69;;;24.60
78225;BMP280;67498;53.650;10.090;2023-08-21T09:10:15;102268.03;;;24.77
78225;BMP280;67498;53.650;10.090;2023-08-21T09:12:40;102276.13;;;24.98
78225;BMP280;67498;53.650;10.090;2023-08-21T09:15:09;102286.50;;;25.25
78225;BMP280;67498;53.650;10.090;2023-08-21T09:17:34;102264.72;;;25.73
78225;BMP280;67498;53.650;10.090;2023-08-21T09:20:04;102277.59;;;26.15
78225;BMP280;67498;53.650;10.090;2023-08-21T09:22:29;102276.16;;;26.40
78225;BMP280;67498;53.650;10.090;2023-08-21T09:25:05;102277.41;;;26.76
78225;BMP280;67498;53.650;10.090;2023-08-21T09:27:33;102272.88;;;26.94
78225;BMP280;67498;53.650;10.090;2023-08-21T09:29:59;102278.22;;;26.88
78225;BMP280;67498;53.650;10.090;2023-08-21T09:32:25;102275.31;;;26.60
78225;BMP280;67498;53.650;10.090;2023-08-21T09:34:50;102276.75;;;26.55
78225;BMP280;67498;53.650;10.090;2023-08-21T09:37:16;102263.63;;;26.58
78225;BMP280;67498;53.650;10.090;2023-08-21T09:39:42;102272.41;;;26.64
78225;BMP280;67498;53.650;10.090;2023-08-21T09:42:08;102259.81;;;26.70
78225;BMP280;67498;53.650;10.090;2023-08-21T09:44:40;102268.56;;;26.70
78225;BMP280;67498;53.650;10.090;2023-08-21T09:47:11;102259.41;;;26.51
78225;BMP280;67498;53.650;10.090;2023-08-21T09:49:38;102255.72;;;26.48
78225;BMP280;67498;53.650;10.090;2023-08-21T09:52:05;102266.44;;;26.48
78225;BMP280;67498;53.650;10.090;2023-08-21T09:54:33;102263.94;;;26.39
78225;BMP280;67498;53.650;10.090;2023-08-21T09:57:01;102256.03;;;26.24
78225;BMP280;67498;53.650;10.090;2023-08-21T09:59:27;102260.91;;;26.26
78225;BMP280;67498;53.650;10.090;2023-08-21T10:01:54;102261.75;;;26.38
78225;BMP280;67498;53.650;10.090;2023-08-21T10:04:22;102258.94;;;26.52
78225;BMP280;67498;53.650;10.090;2023-08-21T10:06:48;102260.91;;;26.26
78225;BMP280;67498;53.650;10.090;2023-08-21T10:09:14;102267.56;;;26.10
78225;BMP280;67498;53.650;10.090;2023-08-21T10:11:42;102260.06;;;26.14
78225;BMP280;67498;53.650;10.090;2023-08-21T10:14:09;102265.31;;;26.29
78225;BMP280;67498;53.650;10.090;2023-08-21T10:16:34;102266.34;;;26.37
78225;BMP280;67498;53.650;10.090;2023-08-21T10:19:03;102257.81;;;26.33
78225;BMP280;67498;53.650;10.090;2023-08-21T10:21:35;102252.06;;;26.20
78225;BMP280;67498;53.650;10.090;2023-08-21T10:24:01;102261.59;;;26.21
78225;BMP280;67498;53.650;10.090;2023-08-21T10:26:26;102267.16;;;26.17
78225;BMP280;67498;53.650;10.090;2023-08-21T10:28:59;102254.16;;;26.05
78225;BMP280;67498;53.650;10.090;2023-08-21T10:31:37;102258.91;;;25.95
78225;BMP280;67498;53.650;10.090;2023-08-21T10:34:08;102255.41;;;25.89
78225;BMP280;67498;53.650;10.090;2023-08-21T10:36:37;102258.78;;;25.84
78225;BMP280;67498;53.650;10.090;2023-08-21T10:39:03;102255.22;;;25.72
78225;BMP280;67498;53.650;10.090;2023-08-21T10:41:29;102274.44;;;25.70
78225;BMP280;67498;53.650;10.090;2023-08-21T10:43:55;102265.81;;;25.61
78225;BMP280;67498;53.650;10.090;2023-08-21T10:46:20;102265.13;;;25.66
78225;BMP280;67498;53.650;10.090;2023-08-21T10:48:45;102270.63;;;25.57
78225;BMP280;67498;53.650;10.090;2023-08-21T10:51:11;102263.44;;;25.48
78225;BMP280;67498;53.650;10.090;2023-08-21T10:53:38;102261.97;;;25.47
78225;BMP280;67498;53.650;10.090;2023-08-21T10:56:05;102254.91;;;25.44
78225;BMP280;67498;53.650;10.090;2023-08-21T10:58:35;102273.47;;;25.33
78225;BMP280;67498;53.650;10.090;2023-08-21T11:01:02;102263.63;;;25.24
78225;BMP280;67498;53.650;10.090;2023-08-21T11:03:28;102263.91;;;25.26
78225;BMP280;67498;53.650;10.090;2023-08-21T11:06:04;102261.50;;;25.28
78225;BMP280;67498;53.650;10.090;2023-08-21T11:08:31;102249.13;;;25.31
78225;BMP280;67498;53.650;10.090;2023-08-21T11:10:56;102242.50;;;25.26
78225;BMP280;67498;53.650;10.090;2023-08-21T11:13:25;102245.94;;;25.27
78225;BMP280;67498;53.650;10.090;2023-08-21T11:16:01;102248.66;;;25.32
78225;BMP280;67498;53.650;10.090;2023-08-21T11:18:35;102249.38;;;25.33
78225;BMP280;67498;53.650;10.090;2023-08-21T11:21:08;102256.41;;;25.30
78225;BMP280;67498;53.650;10.090;2023-08-21T11:23:35;102252.28;;;25.29
78225;BMP280;67498;53.650;10.090;2023-08-21T11:26:02;102253.47;;;25.28
78225;BMP280;67498;53.650;10.090;2023-08-21T11:28:29;102250.31;;;25.30
78225;BMP280;67498;53.650;10.090;2023-08-21T11:30:56;102252.06;;;25.33
78225;BMP280;67498;53.650;10.090;2023-08-21T11:33:21;102250.19;;;25.39
78225;BMP280;67498;53.650;10.090;2023-08-21T11:35:47;102255.22;;;25.52
78225;BMP280;67498;53.650;10.090;2023-08-21T11:38:18;102254.59;;;25.57
78225;BMP280;67498;53.650;10.090;2023-08-21T11:41:00;102257.59;;;25.64
78225;BMP280;67498;53.650;10.090;2023-08-21T11:43:36;102246.94;;;25.70
78225;BMP280;67498;53.650;10.090;2023-08-21T11:46:03;102259.50;;;25.84
78225;BMP280;67498;53.650;10.090;2023-08-21T11:48:29;102257.91;;;25.92
78225;BMP280;67498;53.650;10.090;2023-08-21T11:50:54;102253.03;;;25.91
78225;BMP280;67498;53.650;10.090;2023-08-21T11:53:37;102256.25;;;25.95
78225;BMP280;67498;53.650;10.090;2023-08-21T11:56:09;102252.72;;;26.09
78225;BMP280;67498;53.650;10.090;2023-08-21T11:58:38;102261.25;;;26.13
78225;BMP280;67498;53.650;10.090;2023-08-21T12:01:04;102255.97;;;26.19
78225;BMP280;67498;53.650;10.090;2023-08-21T12:03:30;102246.72;;;26.20
78225;BMP280;67498;53.650;10.090;2023-08-21T12:05:56;102251.88;;;26.23
78225;BMP280;67498;53.650;10.090;2023-08-21T12:08:22;102257.47;;;26.25
78225;BMP280;67498;53.650;10.090;2023-08-21T12:10:50;102248.72;;;26.25
78225;BMP280;67498;53.650;10.090;2023-08-21T12:13:17;102254.59;;;26.29
78225;BMP280;67498;53.650;10.090;2023-08-21T12:15:43;102242.16;;;26.26
78225;BMP280;67498;53.650;10.090;2023-08-21T12:18:08;102247.75;;;26.28
78225;BMP280;67498;53.650;10.090;2023-08-21T12:20:34;102257.47;;;26.25
78225;BMP280;67498;53.650;10.090;2023-08-21T12:22:59;102230.91;;;26.22
78225;BMP280;67498;53.650;10.090;2023-08-21T12:25:24;102250.09;;;26.15
78225;BMP280;67498;53.650;10.090;2023-08-21T12:27:50;102240.31;;;26.12
78225;BMP280;67498;53.650;10.090;2023-08-21T12:30:15;102246.53;;;26.23
78225;BMP280;67498;53.650;10.090;2023-08-21T12:32:40;102239.72;;;26.28
78225;BMP280;67498;53.650;10.090;2023-08-21T12:35:06;102246.63;;;26.35
78225;BMP280;67498;53.650;10.090;2023-08-21T12:37:31;102247.31;;;26.35
78225;BMP280;67498;53.650;10.090;2023-08-21T12:39:56;102237.78;;;26.28
78225;BMP280;67498;53.650;10.090;2023-08-21T12:42:22;102243.19;;;26.34
78225;BMP280;67498;53.650;10.090;2023-08-21T12:44:47;102252.78;;;26.46
78225;BMP280;67498;53.650;10.090;2023-08-21T12:47:12;102253.78;;;26.49
78225;BMP280;67498;53.650;10.090;2023-08-21T12:49:38;102248.50;;;26.54
78225;BMP280;67498;53.650;10.090;2023-08-21T12:52:03;102243.78;;;26.49
78225;BMP280;67498;53.650;10.090;2023-08-21T12:54:30;102251.19;;;26.54
78225;BMP280;67498;53.650;10.090;2023-08-21T12:56:56;102240.47;;;26.54
78225;BMP280;67498;53.650;10.090;2023-08-21T12:59:21;102238.47;;;26.55
78225;BMP280;67498;53.650;10.090;2023-08-21T13:01:47;102240.91;;;26.53
78225;BMP280;67498;53.650;10.090;2023-08-21T13:04:12;102238.72;;;26.51
78225;BMP280;67498;53.650;10.090;2023-08-21T13:06:37;102242.69;;;26.62
78225;BMP280;67498;53.650;10.090;2023-08-21T13:09:03;102240.31;;;26.69
78225;BMP280;67498;53.650;10.090;2023-08-21T13:11:29;102230.75;;;26.68
78225;BMP280;67498;53.650;10.090;2023-08-21T13:13:54;102242.81;;;26.78
78225;BMP280;67498;53.650;10.090;2023-08-21T13:16:20;102244.72;;;26.78
78225;BMP280;67498;53.650;10.090;2023-08-21T13:18:45;102237.19;;;26.76
78225;BMP280;67498;53.650;10.090;2023-08-21T13:21:10;102242.03;;;26.78
78225;BMP280;67498;53.650;10.090;2023-08-21T13:23:36;102236.44;;;26.76
78225;BMP280;67498;53.650;10.090;2023-08-21T13:26:01;102233.78;;;26.76
78225;BMP280;67498;53.650;10.090;2023-08-21T13:28:27;102217.63;;;26.70
78225;BMP280;67498;53.650;10.090;2023-08-21T13:30:52;102229.38;;;26.78
78225;BMP280;67498;53.650;10.090;2023-08-21T13:33:18;102225.50;;;26.79
78225;BMP280;67498;53.650;10.090;2023-08-21T13:35:44;102226.47;;;26.82
78225;BMP280;67498;53.650;10.090;2023-08-21T13:38:10;102223.53;;;26.80